createdAt,value
2023-03-20T00:00:51.999Z,32.70
2023-03-20T00:03:54.199Z,32.57
2023-03-20T00:06:56.171Z,32.20
2023-03-20T00:09:58.096Z,29.93
2023-03-20T00:13:00.431Z,32.67
2023-03-20T00:16:02.697Z,26.87
2023-03-20T00:19:06.692Z,32.17
2023-03-20T00:22:08.931Z,32.30
2023-03-20T00:25:19.478Z,39.27
2023-03-20T00:28:40.643Z,28.17
2023-03-20T00:31:42.517Z,36.43
2023-03-20T00:34:44.351Z,38.57
2023-03-20T00:37:48.102Z,36.70
2023-03-20T00:40:49.809Z,37.27
2023-03-20T00:43:56.348Z,34.03
2023-03-20T00:47:01.547Z,43.87
2023-03-20T00:50:14.004Z,31.93
2023-03-20T00:53:15.723Z,30.70
2023-03-20T00:56:38.634Z,31.57
2023-03-20T00:59:53.038Z,33.03
2023-03-20T01:02:57.629Z,30.50
2023-03-20T01:05:59.827Z,34.90
2023-03-20T01:09:01.496Z,34.20
2023-03-20T01:12:06.299Z,31.87
2023-03-20T01:15:34.263Z,33.20
2023-03-20T01:18:37.031Z,27.17
2023-03-20T01:21:38.691Z,32.00
2023-03-20T01:24:41.191Z,31.40
2023-03-20T01:27:46.536Z,29.30
2023-03-20T01:31:00.275Z,30.73
2023-03-20T01:34:03.572Z,28.60
2023-03-20T01:37:12.797Z,33.50
2023-03-20T01:40:40.594Z,29.43
2023-03-20T01:43:44.541Z,28.40
2023-03-20T01:46:47.237Z,35.20
2023-03-20T01:50:12.643Z,33.07
2023-03-20T01:53:23.144Z,30.10
2023-03-20T01:56:32.840Z,30.23
2023-03-20T01:59:41.803Z,27.73
2023-03-20T02:02:46.300Z,28.03
2023-03-20T02:05:59.734Z,30.90
2023-03-20T02:09:09.683Z,29.93
2023-03-20T02:12:17.758Z,25.60
2023-03-20T02:15:19.735Z,25.43
2023-03-20T02:18:41.700Z,25.10
2023-03-20T02:22:05.294Z,24.07
2023-03-20T02:25:54.149Z,23.57
2023-03-20T02:29:09.689Z,25.60
2023-03-20T02:33:07.030Z,24.93
2023-03-20T02:36:36.458Z,21.87
2023-03-20T02:40:00.852Z,24.47
2023-03-20T02:43:06.394Z,23.17
2023-03-20T02:46:34.412Z,23.20
2023-03-20T02:50:12.579Z,21.20
2023-03-20T02:53:42.442Z,24.33
2023-03-20T02:57:09.137Z,24.53
2023-03-20T03:00:13.985Z,21.30
2023-03-20T03:03:22.660Z,23.03
2023-03-20T03:06:31.573Z,23.43
2023-03-20T03:09:46.135Z,20.67
2023-03-20T03:12:51.738Z,20.83
2023-03-20T03:15:57.682Z,23.27
2023-03-20T03:19:07.906Z,23.90
2023-03-20T03:22:12.162Z,20.97
2023-03-20T03:25:14.008Z,21.47
2023-03-20T03:28:42.117Z,21.97
2023-03-20T03:31:45.618Z,21.10
2023-03-20T03:34:47.399Z,21.87
2023-03-20T03:37:52.216Z,20.17
2023-03-20T03:40:56.769Z,22.50
2023-03-20T03:44:07.513Z,22.77
2023-03-20T03:47:18.715Z,19.83
2023-03-20T03:50:29.847Z,20.07
2023-03-20T03:53:38.673Z,17.77
2023-03-20T03:56:44.728Z,20.40
2023-03-20T03:59:50.692Z,19.10
2023-03-20T04:02:55.803Z,22.33
2023-03-20T04:05:59.519Z,18.73
2023-03-20T04:09:01.714Z,18.03
2023-03-20T04:12:03.740Z,16.67
2023-03-20T04:15:06.570Z,15.43
2023-03-20T04:18:16.681Z,14.53
2023-03-20T04:21:19.882Z,16.47
2023-03-20T04:24:22.033Z,14.33
2023-03-20T04:27:23.916Z,20.03
2023-03-20T04:30:26.059Z,19.00
2023-03-20T04:33:47.408Z,16.47
2023-03-20T04:36:55.199Z,15.07
2023-03-20T04:40:04.400Z,16.20
2023-03-20T04:43:06.573Z,16.50
2023-03-20T04:46:09.053Z,13.10
2023-03-20T04:49:11.268Z,15.43
2023-03-20T04:52:13.357Z,14.10
2023-03-20T04:55:17.729Z,15.07
2023-03-20T04:58:19.605Z,14.63
2023-03-20T05:01:23.225Z,15.10
2023-03-20T05:04:25.426Z,13.87
2023-03-20T05:07:27.284Z,12.77
2023-03-20T05:10:38.935Z,11.13
2023-03-20T05:14:00.680Z,14.00
2023-03-20T05:17:26.695Z,14.07
2023-03-20T05:20:48.457Z,13.83
2023-03-20T05:24:16.542Z,14.63
2023-03-20T05:27:36.921Z,16.43
2023-03-20T05:30:59.768Z,11.57
2023-03-20T05:34:29.599Z,11.20
2023-03-20T05:37:53.888Z,12.90
2023-03-20T05:41:15.945Z,13.37
2023-03-20T05:44:34.263Z,10.43
2023-03-20T05:48:01.545Z,10.67
2023-03-20T05:51:29.321Z,12.27
2023-03-20T05:54:43.362Z,11.57
2023-03-20T05:58:12.175Z,13.57
2023-03-20T06:01:32.448Z,13.37
2023-03-20T06:04:42.478Z,15.10
2023-03-20T06:07:55.070Z,12.40
2023-03-20T06:10:56.793Z,10.43
2023-03-20T06:13:59.259Z,13.23
2023-03-20T06:17:10.800Z,15.63
2023-03-20T06:20:13.127Z,12.50
2023-03-20T06:23:14.843Z,16.73
2023-03-20T06:26:17.072Z,12.37
2023-03-20T06:29:29.732Z,13.43
2023-03-20T06:32:41.914Z,13.37
2023-03-20T06:35:46.910Z,13.70
2023-03-20T06:38:49.484Z,13.17
2023-03-20T06:41:52.162Z,19.07
2023-03-20T06:44:57.983Z,14.40
2023-03-20T06:48:21.788Z,15.07
2023-03-20T06:51:23.987Z,14.63
2023-03-20T06:54:28.116Z,15.53
2023-03-20T06:57:30.167Z,16.67
2023-03-20T07:00:32.251Z,19.07
2023-03-20T07:03:37.523Z,15.47
2023-03-20T07:06:39.969Z,19.53
2023-03-20T07:09:42.254Z,15.87
2023-03-20T07:12:44.589Z,19.03
2023-03-20T07:16:03.056Z,15.63
2023-03-20T07:19:10.685Z,19.77
2023-03-20T07:22:25.957Z,14.03
2023-03-20T07:25:42.880Z,11.27
2023-03-20T07:28:49.555Z,15.90
2023-03-20T07:31:56.330Z,11.70
2023-03-20T07:35:03.144Z,14.33
2023-03-20T07:38:05.727Z,11.13
2023-03-20T07:41:09.657Z,12.37
2023-03-20T07:44:15.168Z,12.83
2023-03-20T07:47:27.144Z,10.47
2023-03-20T07:50:28.878Z,11.17
2023-03-20T07:53:30.695Z,9.53
2023-03-20T07:56:32.420Z,9.63
2023-03-20T07:59:34.125Z,11.63
2023-03-20T08:02:36.100Z,7.80
2023-03-20T08:05:38.182Z,9.17
2023-03-20T08:08:40.234Z,11.27
2023-03-20T08:11:41.973Z,8.87
2023-03-20T08:14:44.104Z,7.77
2023-03-20T08:17:46.461Z,6.87
2023-03-20T08:20:50.175Z,8.33
2023-03-20T08:23:51.979Z,11.43
2023-03-20T08:26:53.937Z,9.73
2023-03-20T08:29:55.819Z,8.33
2023-03-20T08:32:58.897Z,7.20
2023-03-20T08:36:00.849Z,10.13
2023-03-20T08:39:03.083Z,9.23
2023-03-20T08:42:05.569Z,9.03
2023-03-20T08:45:08.060Z,10.77
2023-03-20T08:48:11.084Z,8.00
2023-03-20T08:51:12.836Z,10.13
2023-03-20T08:54:16.182Z,12.87
2023-03-20T08:57:17.892Z,11.73
2023-03-20T09:00:20.346Z,10.50
2023-03-20T09:03:22.259Z,7.93
2023-03-20T09:06:24.121Z,11.57
2023-03-20T09:09:29.349Z,8.80
2023-03-20T09:12:32.651Z,8.53
2023-03-20T09:15:36.097Z,7.93
2023-03-20T09:18:38.099Z,9.83
2023-03-20T09:21:40.130Z,8.40
2023-03-20T09:24:41.868Z,8.57
2023-03-20T09:27:43.701Z,5.30
2023-03-20T09:30:45.838Z,9.17
2023-03-20T09:33:47.614Z,10.17
2023-03-20T09:36:49.494Z,6.87
2023-03-20T09:39:51.288Z,4.57
2023-03-20T09:43:09.216Z,4.47
2023-03-20T09:46:38.874Z,9.83
2023-03-20T09:49:52.917Z,8.30
2023-03-20T09:53:15.952Z,7.10
2023-03-20T09:56:25.558Z,4.87
2023-03-20T09:59:28.163Z,5.10
2023-03-20T10:02:41.858Z,5.30
2023-03-20T10:05:49.074Z,4.53
2023-03-20T10:08:51.912Z,6.00
2023-03-20T10:12:18.214Z,3.93
2023-03-20T10:15:33.210Z,3.73
2023-03-20T10:18:40.921Z,6.83
2023-03-20T10:21:49.385Z,4.53
2023-03-20T10:25:12.768Z,6.07
2023-03-20T10:28:20.571Z,7.63
2023-03-20T10:31:33.484Z,6.37
2023-03-20T10:34:59.276Z,7.20
2023-03-20T10:38:10.427Z,5.73
2023-03-20T10:41:19.686Z,6.97
2023-03-20T10:44:33.097Z,8.73
2023-03-20T10:47:38.575Z,4.50
2023-03-20T10:50:53.568Z,6.00
2023-03-20T10:54:00.179Z,3.83
2023-03-20T10:57:04.211Z,7.00
2023-03-20T11:00:11.080Z,4.60
2023-03-20T11:03:27.867Z,4.87
2023-03-20T11:06:37.726Z,2.80
2023-03-20T11:09:40.032Z,3.77
2023-03-20T11:12:44.315Z,3.30
2023-03-20T11:15:46.786Z,6.60
2023-03-20T11:18:50.053Z,5.20
2023-03-20T11:21:56.112Z,4.27
2023-03-20T11:25:01.793Z,4.00
2023-03-20T11:28:20.223Z,5.17
2023-03-20T11:31:41.603Z,4.03
2023-03-20T11:34:43.699Z,4.07
2023-03-20T11:37:48.505Z,6.43
2023-03-20T11:40:54.247Z,5.60
2023-03-20T11:43:56.059Z,7.00
2023-03-20T11:47:05.454Z,5.13
2023-03-20T11:50:35.213Z,3.73
2023-03-20T11:54:07.845Z,9.97
2023-03-20T11:57:26.425Z,3.07
2023-03-20T12:00:40.353Z,4.03
2023-03-20T12:03:49.845Z,7.97
2023-03-20T12:07:11.048Z,6.00
2023-03-20T12:10:15.047Z,6.20
2023-03-20T12:13:24.389Z,8.50
2023-03-20T12:16:30.396Z,5.03
2023-03-20T12:19:33.250Z,7.47
2023-03-20T12:22:44.981Z,6.63
2023-03-20T12:26:04.906Z,4.83
2023-03-20T12:29:25.329Z,3.33
2023-03-20T12:32:37.274Z,6.87
2023-03-20T12:35:44.715Z,3.67
2023-03-20T12:38:46.662Z,3.37
2023-03-20T12:42:10.204Z,7.70
2023-03-20T12:45:18.622Z,10.17
2023-03-20T12:48:35.631Z,2.50
2023-03-20T12:51:53.138Z,5.53
2023-03-20T12:55:30.987Z,10.10
2023-03-20T12:58:32.672Z,5.53
2023-03-20T13:01:55.562Z,4.77
2023-03-20T13:05:05.773Z,7.33
2023-03-20T13:08:18.334Z,7.27
2023-03-20T13:11:38.212Z,8.23
2023-03-20T13:14:48.968Z,3.50
2023-03-20T13:17:53.886Z,8.17
2023-03-20T13:20:57.077Z,5.20
2023-03-20T13:24:17.665Z,9.67
2023-03-20T13:27:29.609Z,7.83
2023-03-20T13:30:44.798Z,6.17
2023-03-20T13:33:56.345Z,4.10
2023-03-20T13:37:23.465Z,7.77
2023-03-20T13:40:33.556Z,5.43
2023-03-20T13:43:54.337Z,12.27
2023-03-20T13:47:13.210Z,6.60
2023-03-20T13:50:49.146Z,7.10
2023-03-20T13:54:02.995Z,8.40
2023-03-20T13:57:28.349Z,6.53
2023-03-20T14:01:00.930Z,14.60
2023-03-20T14:04:03.722Z,8.70
2023-03-20T14:07:26.919Z,10.67
2023-03-20T14:10:36.743Z,10.07
2023-03-20T14:13:39.657Z,9.37
2023-03-20T14:16:42.459Z,10.77
2023-03-20T14:19:44.928Z,7.00
2023-03-20T14:22:49.009Z,8.00
2023-03-20T14:25:54.982Z,8.37
2023-03-20T14:29:03.121Z,11.37
2023-03-20T14:32:12.548Z,8.27
2023-03-20T14:35:14.238Z,9.20
2023-03-20T14:38:27.434Z,9.23
2023-03-20T14:41:59.718Z,11.87
2023-03-20T14:45:13.245Z,9.87
2023-03-20T14:48:27.237Z,10.40
2023-03-20T14:51:41.548Z,16.97
2023-03-20T14:54:51.475Z,9.47
2023-03-20T14:57:57.061Z,12.67
2023-03-20T15:01:07.262Z,10.87
2023-03-20T15:04:33.028Z,12.27
2023-03-20T15:07:38.878Z,7.30
2023-03-20T15:10:56.720Z,14.77
2023-03-20T15:14:00.195Z,10.40
2023-03-20T15:17:03.541Z,10.33
2023-03-20T15:20:17.207Z,8.70
2023-03-20T15:23:19.033Z,6.70
2023-03-20T15:26:25.177Z,7.03
2023-03-20T15:29:28.814Z,6.87
2023-03-20T15:32:33.277Z,7.43
2023-03-20T15:35:35.142Z,10.30
2023-03-20T15:38:37.979Z,17.07
2023-03-20T15:41:39.743Z,9.27
2023-03-20T15:44:44.789Z,10.17
2023-03-20T15:47:46.562Z,10.13
2023-03-20T15:50:58.122Z,10.57
2023-03-20T15:54:00.011Z,21.17
2023-03-20T15:57:02.470Z,12.67
2023-03-20T16:00:07.482Z,21.57
2023-03-20T16:03:19.137Z,7.50
2023-03-20T16:06:24.167Z,8.43
2023-03-20T16:09:27.943Z,7.60
2023-03-20T16:12:29.717Z,10.10
2023-03-20T16:15:32.788Z,10.67
2023-03-20T16:18:38.150Z,7.37
2023-03-20T16:21:44.549Z,9.47
2023-03-20T16:24:51.429Z,6.97
2023-03-20T16:27:54.120Z,7.63
2023-03-20T16:31:17.210Z,20.20
2023-03-20T16:34:23.597Z,10.37
2023-03-20T16:37:31.275Z,11.60
2023-03-20T16:40:37.681Z,10.13
2023-03-20T16:43:40.051Z,12.90
2023-03-20T16:47:14.294Z,12.17
2023-03-20T16:50:23.444Z,15.23
2023-03-20T16:53:29.290Z,7.60
2023-03-20T16:56:40.349Z,10.90
2023-03-20T16:59:42.252Z,11.60
2023-03-20T17:02:51.966Z,9.37
2023-03-20T17:05:59.662Z,11.83
2023-03-20T17:09:23.397Z,10.13
2023-03-20T17:12:26.370Z,11.90
2023-03-20T17:15:28.093Z,13.73
2023-03-20T17:18:29.849Z,13.40
2023-03-20T17:21:32.177Z,11.90
2023-03-20T17:24:33.928Z,13.17
2023-03-20T17:27:37.788Z,12.37
2023-03-20T17:30:39.581Z,9.87
2023-03-20T17:33:42.010Z,7.83
2023-03-20T17:36:43.952Z,14.67
2023-03-20T17:39:45.670Z,11.23
2023-03-20T17:42:48.362Z,16.87
2023-03-20T17:45:50.209Z,16.67
2023-03-20T17:48:56.763Z,13.17
2023-03-20T17:51:58.464Z,11.90
2023-03-20T17:55:00.271Z,9.53
2023-03-20T17:58:02.009Z,8.53
2023-03-20T18:01:06.466Z,16.37
2023-03-20T18:04:08.389Z,11.87
2023-03-20T18:07:10.923Z,13.37
2023-03-20T18:10:32.320Z,8.83
2023-03-20T18:13:34.104Z,10.67
2023-03-20T18:16:35.821Z,6.33
2023-03-20T18:19:37.568Z,8.97
2023-03-20T18:22:39.259Z,9.03
2023-03-20T18:25:41.919Z,10.37
2023-03-20T18:28:43.725Z,12.97
2023-03-20T18:31:46.983Z,8.80
2023-03-20T18:34:48.858Z,17.27
2023-03-20T18:37:50.579Z,17.07
2023-03-20T18:40:52.676Z,16.43
2023-03-20T18:43:55.604Z,12.07
2023-03-20T18:46:57.403Z,12.97
2023-03-20T18:49:59.130Z,14.43
2023-03-20T18:53:00.893Z,10.20
2023-03-20T18:56:02.772Z,10.37
2023-03-20T18:59:07.876Z,11.00
2023-03-20T19:02:09.769Z,12.87
2023-03-20T19:05:11.620Z,7.77
2023-03-20T19:08:16.109Z,9.33
2023-03-20T19:11:21.411Z,8.17
2023-03-20T19:14:25.670Z,16.33
2023-03-20T19:17:27.401Z,7.07
2023-03-20T19:20:40.926Z,13.77
2023-03-20T19:23:43.096Z,9.77
2023-03-20T19:26:45.474Z,8.47
2023-03-20T19:29:47.227Z,12.57
2023-03-20T19:32:49.046Z,9.43
2023-03-20T19:36:06.915Z,11.60
2023-03-20T19:39:12.495Z,11.47
2023-03-20T19:45:44.211Z,10.67
2023-03-20T19:48:50.795Z,9.63
2023-03-20T19:51:53.115Z,11.73
2023-03-20T19:55:02.706Z,14.40
2023-03-20T19:58:06.389Z,13.73
2023-03-20T20:01:15.222Z,15.37
2023-03-20T20:04:17.442Z,10.50
2023-03-20T20:10:46.838Z,8.27
2023-03-20T20:14:05.821Z,10.23
2023-03-20T20:17:09.093Z,13.07
2023-03-20T20:20:12.095Z,10.97
2023-03-20T20:23:16.175Z,11.93
2023-03-20T20:26:18.602Z,11.03
2023-03-20T20:29:21.275Z,14.17
2023-03-20T20:32:25.622Z,11.33
2023-03-20T20:35:51.169Z,11.07
2023-03-20T20:38:51.637Z,11.03
2023-03-20T20:41:53.943Z,12.03
2023-03-20T20:44:55.715Z,10.03
2023-03-20T20:47:57.606Z,7.37
2023-03-20T20:51:00.902Z,9.63
2023-03-20T20:54:02.609Z,8.57
2023-03-20T20:57:04.392Z,9.80
2023-03-20T21:00:09.017Z,13.13
2023-03-20T21:03:11.545Z,10.67
2023-03-20T21:06:13.533Z,8.80
2023-03-20T21:09:15.377Z,13.13
2023-03-20T21:12:33.562Z,10.50
2023-03-20T21:15:39.498Z,11.70
2023-03-20T21:18:41.611Z,13.80
2023-03-20T21:21:43.347Z,15.37
2023-03-20T21:24:45.362Z,13.73
2023-03-20T21:27:47.116Z,9.23
2023-03-20T21:31:16.217Z,12.67
2023-03-20T21:34:10.727Z,11.87
2023-03-20T21:38:17.893Z,16.93
2023-03-20T21:40:37.995Z,12.53
2023-03-20T21:43:40.901Z,13.07
2023-03-20T21:54:20.780Z,10.23
2023-03-20T21:57:24.035Z,12.37
2023-03-20T22:01:03.146Z,13.00
2023-03-20T22:04:19.087Z,10.90
2023-03-20T22:07:48.568Z,8.33
2023-03-20T22:11:10.737Z,14.40
2023-03-20T22:31:19.712Z,14.20
2023-03-20T22:37:53.314Z,10.47
2023-03-20T22:47:22.499Z,14.30
2023-03-20T22:50:24.268Z,11.37
2023-03-20T22:53:26.148Z,12.97
2023-03-20T22:56:27.870Z,13.30
2023-03-20T22:59:29.623Z,15.03
2023-03-20T23:02:31.359Z,13.97
2023-03-20T23:05:35.057Z,14.57
2023-03-20T23:08:48.138Z,14.90
2023-03-20T23:11:52.350Z,21.27
2023-03-20T23:14:54.980Z,13.67
2023-03-20T23:17:56.675Z,19.47
2023-03-20T23:20:59.368Z,13.73
2023-03-20T23:24:01.077Z,19.13
2023-03-20T23:27:02.810Z,12.90
2023-03-20T23:30:05.884Z,17.87
2023-03-20T23:33:07.648Z,16.80
2023-03-20T23:36:21.465Z,18.27
2023-03-20T23:39:30.506Z,10.80
2023-03-20T23:42:32.263Z,17.97
2023-03-20T23:45:34.001Z,21.97
2023-03-20T23:48:36.447Z,16.60
2023-03-20T23:51:38.179Z,15.53
2023-03-20T23:54:39.928Z,13.07
2023-03-20T23:57:41.671Z,17.63
